Time;durP1;ratioP1;P1;durP2;ratioP2;P2;SDS_P1;SDS_P2;PMS_P1;PMS_P2;Temp;Humidity;BMP_temperature;BMP_pressure;BME280_temperature;BME280_humidity;BME280_pressure;Samples;Min_cycle;Max_cycle;Signal;HPM_P1;HPM_P2
2022/04/28 00:01:40;;;;;;;;;;;9.70;99.90;;;;;;2622186;46;19985;31
2022/04/28 00:04:19;;;;;;;;;;;9.70;99.90;;;;;;2603495;54;19938;31
2022/04/28 00:06:54;;;;;;;;;;;9.60;99.90;;;;;;2603821;54;19942;31
2022/04/28 00:09:29;;;;;;;;;;;9.60;99.90;;;;;;2622205;46;20789;31
2022/04/28 00:12:04;;;;;;;;;;;9.40;99.90;;;;;;2622135;46;19989;31
2022/04/28 00:14:42;;;;;;;;;;;9.40;99.90;;;;;;2603731;54;20575;31
2022/04/28 00:17:18;;;;;;;;;;;9.30;99.90;;;;;;2603534;54;19935;31
2022/04/28 00:19:56;;;;;;;;;;;9.20;99.90;;;;;;2603169;54;20768;31
2022/04/28 00:22:34;;;;;;;;;;;9.20;99.90;;;;;;2603766;54;19986;31
2022/04/28 00:25:08;;;;;;;;;;;9.10;99.90;;;;;;2622068;46;19994;31
2022/04/28 00:27:44;;;;;;;;;;;9.10;99.90;;;;;;2603351;54;19997;31
2022/04/28 00:30:19;;;;;;;;;;;9.00;99.90;;;;;;2622312;46;20483;31
2022/04/28 00:32:52;;;;;;;;;;;8.90;99.90;;;;;;2702082;39;20983;31
2022/04/28 00:35:30;;;;;;;;;;;8.90;99.90;;;;;;2603419;54;20013;31
2022/04/28 00:38:05;;;;;;;;;;;8.90;99.90;;;;;;2622215;47;20812;31
2022/04/28 00:40:42;;;;;;;;;;;8.90;99.90;;;;;;2603414;54;19990;31
2022/04/28 00:43:26;;;;;;;;;;;8.80;99.90;;;;;;2622273;47;19946;31
2022/04/28 00:46:03;;;;;;;;;;;9.40;99.90;;;;;;2603341;54;20051;31
2022/04/28 00:51:28;;;;;;;;;;;8.50;99.90;;;;;;2603265;54;20657;31
2022/04/28 00:54:03;;;;;;;;;;;8.50;99.90;;;;;;2720661;39;20461;31
2022/04/28 00:56:39;;;;;;;;;;;8.40;99.90;;;;;;2621894;47;20005;31
2022/04/28 00:59:15;;;;;;;;;;;8.40;99.90;;;;;;2621821;47;20489;31
2022/04/28 01:01:50;;;;;;;;;;;8.40;99.90;;;;;;2603621;54;20760;31
2022/04/28 01:04:26;;;;;;;;;;;8.40;99.90;;;;;;2603257;54;19935;31
2022/04/28 01:07:06;;;;;;;;;;;9.00;99.90;;;;;;2603558;54;20745;31
2022/04/28 01:09:41;;;;;;;;;;;8.30;99.90;;;;;;2604334;54;19978;31
2022/04/28 01:12:21;;;;;;;;;;;8.50;99.90;;;;;;2622780;46;19934;31
2022/04/28 01:15:04;;;;;;;;;;;8.40;99.90;;;;;;2604371;54;19934;31
2022/04/28 01:17:41;;;;;;;;;;;8.10;99.90;;;;;;2604305;54;19934;31
2022/04/28 01:20:21;;;;;;;;;;;8.00;99.90;;;;;;2604458;54;19934;31
2022/04/28 01:22:58;;;;;;;;;;;8.00;99.90;;;;;;2609590;46;20015;31
2022/04/28 01:25:35;;;;;;;;;;;7.80;99.90;;;;;;2622365;46;21773;31
2022/04/28 01:28:10;;;;;;;;;;;7.80;99.90;;;;;;2702739;39;20420;31
2022/04/28 01:30:45;;;;;;;;;;;7.80;99.90;;;;;;2702522;39;21274;31
2022/04/28 01:33:20;;;;;;;;;;;7.70;99.90;;;;;;2622493;46;19989;31
2022/04/28 01:35:55;;;;;;;;;;;7.60;99.90;;;;;;2604314;54;19935;31
2022/04/28 01:38:39;;;;;;;;;;;7.60;99.90;;;;;;2622901;46;19942;31
2022/04/28 01:41:23;;;;;;;;;;;7.50;99.90;;;;;;2622808;46;20007;31
2022/04/28 01:43:59;;;;;;;;;;;7.40;99.90;;;;;;2603970;54;20822;31
2022/04/28 01:46:36;;;;;;;;;;;7.40;99.90;;;;;;2620933;46;20836;31
2022/04/28 01:49:34;;;;;;;;;;;7.40;99.90;;;;;;2604128;54;21252;31
2022/04/28 01:55:57;;;;;;;;;;;7.30;99.90;;;;;;2603976;54;19997;31
2022/04/28 01:58:49;;;;;;;;;;;7.30;99.90;;;;;;2622835;46;19938;31
2022/04/28 02:01:44;;;;;;;;;;;7.30;99.90;;;;;;2604128;54;20695;31
2022/04/28 02:04:22;;;;;;;;;;;7.20;99.90;;;;;;2702683;39;20939;31
2022/04/28 02:07:02;;;;;;;;;;;7.20;99.90;;;;;;2604201;54;19934;31
2022/04/28 02:09:38;;;;;;;;;;;7.20;99.90;;;;;;2604098;54;19986;31
2022/04/28 02:12:17;;;;;;;;;;;7.20;99.90;;;;;;2604116;54;19935;31
2022/04/28 02:15:08;;;;;;;;;;;7.20;99.90;;;;;;2622652;46;19935;31
2022/04/28 02:18:08;;;;;;;;;;;7.10;99.90;;;;;;2603641;54;19965;31
2022/04/28 02:20:43;;;;;;;;;;;7.10;99.90;;;;;;2622238;47;19942;31
2022/04/28 02:23:20;;;;;;;;;;;7.00;99.90;;;;;;2702547;39;20404;31
2022/04/28 02:25:55;;;;;;;;;;;7.00;99.90;;;;;;2604242;54;20009;31
2022/04/28 02:28:33;;;;;;;;;;;6.90;99.90;;;;;;2604033;54;19942;31
2022/04/28 02:31:08;;;;;;;;;;;6.90;99.90;;;;;;2604032;54;20858;31
2022/04/28 02:33:42;;;;;;;;;;;6.80;99.90;;;;;;2622061;46;20821;31
2022/04/28 02:36:24;;;;;;;;;;;6.80;99.90;;;;;;2604023;54;19958;31
2022/04/28 02:39:01;;;;;;;;;;;6.80;99.90;;;;;;2622310;46;20826;31
2022/04/28 02:41:37;;;;;;;;;;;6.70;99.90;;;;;;2603357;54;20813;31
2022/04/28 02:44:15;;;;;;;;;;;6.70;99.90;;;;;;2603983;54;19946;31
2022/04/28 02:46:50;;;;;;;;;;;6.60;99.90;;;;;;2622614;46;19934;31
2022/04/28 02:49:31;;;;;;;;;;;6.50;99.90;;;;;;2622430;46;19963;31
2022/04/28 02:52:12;;;;;;;;;;;6.50;99.90;;;;;;2603988;54;19950;31
2022/04/28 02:54:47;;;;;;;;;;;6.40;99.90;;;;;;2603767;54;20709;31
2022/04/28 02:57:23;;;;;;;;;;;6.40;99.90;;;;;;2603792;54;20017;31
2022/04/28 03:00:04;;;;;;;;;;;6.30;99.90;;;;;;2603601;54;19934;31
2022/04/28 03:02:46;;;;;;;;;;;6.30;99.90;;;;;;2622129;46;19961;31
2022/04/28 03:05:22;;;;;;;;;;;6.20;99.90;;;;;;2603586;54;20621;31
2022/04/28 03:10:53;;;;;;;;;;;6.20;99.90;;;;;;2622239;46;19934;31
2022/04/28 03:13:32;;;;;;;;;;;6.20;99.90;;;;;;2603745;54;19946;31
2022/04/28 03:16:11;;;;;;;;;;;6.10;99.90;;;;;;2604019;54;19958;31
2022/04/28 03:19:07;;;;;;;;;;;6.10;99.90;;;;;;2622339;46;20041;31
2022/04/28 03:21:42;;;;;;;;;;;6.10;99.90;;;;;;2603956;54;19934;31
2022/04/28 03:24:17;;;;;;;;;;;6.00;99.90;;;;;;2603889;54;19941;31
2022/04/28 03:26:52;;;;;;;;;;;6.00;99.90;;;;;;2604028;54;19961;31
2022/04/28 03:29:29;;;;;;;;;;;6.00;99.90;;;;;;2603180;54;19943;31
2022/04/28 03:32:08;;;;;;;;;;;6.00;99.90;;;;;;2774129;31;21095;31
2022/04/28 03:35:02;;;;;;;;;;;6.00;99.90;;;;;;2622357;46;19996;31
2022/04/28 03:37:36;;;;;;;;;;;6.00;99.90;;;;;;2603655;54;20759;31
2022/04/28 03:40:11;;;;;;;;;;;6.00;99.90;;;;;;2720830;39;20420;31
2022/04/28 03:42:48;;;;;;;;;;;5.90;99.90;;;;;;2603141;54;19997;31
2022/04/28 03:45:24;;;;;;;;;;;5.90;99.90;;;;;;2603632;54;20829;31
2022/04/28 03:48:04;;;;;;;;;;;5.80;99.90;;;;;;2622303;46;20816;31
2022/04/28 03:50:39;;;;;;;;;;;5.80;99.90;;;;;;2603083;54;20795;31
2022/04/28 03:53:15;;;;;;;;;;;5.70;99.90;;;;;;2603832;54;20801;31
2022/04/28 03:55:50;;;;;;;;;;;5.60;99.90;;;;;;2603741;54;19986;31
2022/04/28 03:58:25;;;;;;;;;;;5.70;99.90;;;;;;2603696;54;20025;31
2022/04/28 04:01:01;;;;;;;;;;;5.70;99.90;;;;;;2622474;46;19946;31
2022/04/28 04:04:02;;;;;;;;;;;5.70;99.90;;;;;;2603586;54;20012;31
2022/04/28 04:06:37;;;;;;;;;;;5.70;99.90;;;;;;2603395;54;19954;31
2022/04/28 04:09:31;;;;;;;;;;;5.80;99.90;;;;;;2603466;54;20601;31
2022/04/28 04:12:06;;;;;;;;;;;6.00;99.90;;;;;;2603735;54;19946;31
2022/04/28 04:14:58;;;;;;;;;;;6.10;99.90;;;;;;2621712;46;19934;31
2022/04/28 04:17:50;;;;;;;;;;;6.30;99.90;;;;;;2603619;54;20742;31
2022/04/28 04:20:31;;;;;;;;;;;6.40;99.90;;;;;;2603666;54;19941;31
2022/04/28 04:23:07;;;;;;;;;;;6.60;99.90;;;;;;2603592;54;20025;31
2022/04/28 04:25:41;;;;;;;;;;;6.70;99.90;;;;;;2702120;39;20466;31
2022/04/28 04:28:22;;;;;;;;;;;6.90;99.90;;;;;;2603584;54;19994;31
2022/04/28 04:34:10;;;;;;;;;;;7.30;99.90;;;;;;2702023;39;20938;31
2022/04/28 04:36:49;;;;;;;;;;;7.60;99.90;;;;;;2621969;47;20477;31
2022/04/28 04:39:23;;;;;;;;;;;7.80;99.90;;;;;;2603480;54;20055;31
2022/04/28 04:41:58;;;;;;;;;;;8.00;99.90;;;;;;2603784;54;19941;31
2022/04/28 04:44:33;;;;;;;;;;;8.30;99.90;;;;;;2622760;46;20492;31
2022/04/28 04:47:09;;;;;;;;;;;8.50;99.90;;;;;;2702913;39;20453;31
2022/04/28 04:50:00;;;;;;;;;;;8.80;99.90;;;;;;2604283;54;20784;31
2022/04/28 04:52:48;;;;;;;;;;;9.10;99.90;;;;;;2622462;46;20016;31
2022/04/28 04:55:28;;;;;;;;;;;9.40;99.90;;;;;;2604307;54;19935;31
2022/04/28 04:58:09;;;;;;;;;;;9.80;99.90;;;;;;2622966;46;19934;31
2022/04/28 05:00:49;;;;;;;;;;;10.10;99.90;;;;;;2604275;54;19938;31
2022/04/28 05:03:29;;;;;;;;;;;10.50;99.90;;;;;;2604032;54;20723;31
2022/04/28 05:06:38;;;;;;;;;;;10.90;99.90;;;;;;2604273;54;19964;31
2022/04/28 05:09:31;;;;;;;;;;;11.20;99.90;;;;;;2603991;54;20795;31
2022/04/28 05:12:07;;;;;;;;;;;11.50;99.90;;;;;;2622681;46;20005;31
2022/04/28 05:15:00;;;;;;;;;;;11.70;99.90;;;;;;2604119;54;20859;31
2022/04/28 05:17:42;;;;;;;;;;;12.10;99.90;;;;;;2623050;46;19941;31
2022/04/28 05:20:35;;;;;;;;;;;12.40;99.90;;;;;;2622782;46;20792;31
2022/04/28 05:23:30;;;;;;;;;;;12.60;99.90;;;;;;2604268;54;19935;31
2022/04/28 05:26:27;;;;;;;;;;;12.70;99.90;;;;;;2604172;54;20796;31
2022/04/28 05:29:36;;;;;;;;;;;12.80;99.90;;;;;;2604073;54;19934;31
2022/04/28 05:32:30;;;;;;;;;;;12.70;99.90;;;;;;2604318;54;19939;31
2022/04/28 05:35:14;;;;;;;;;;;12.60;99.90;;;;;;2604170;54;19935;31
2022/04/28 05:37:49;;;;;;;;;;;12.40;99.90;;;;;;2604228;54;19935;31
2022/04/28 05:40:24;;;;;;;;;;;12.50;99.90;;;;;;2604074;54;19989;31
2022/04/28 05:45:55;;;;;;;;;;;12.30;99.90;;;;;;2604392;54;19939;31
2022/04/28 05:48:30;;;;;;;;;;;12.20;99.90;;;;;;2622572;46;19935;31
2022/04/28 05:51:06;;;;;;;;;;;12.10;99.90;;;;;;2604045;54;20734;31
2022/04/28 05:53:47;;;;;;;;;;;12.00;99.90;;;;;;2603885;54;19935;31
2022/04/28 05:56:22;;;;;;;;;;;12.00;99.90;;;;;;2603935;54;20005;31
2022/04/28 05:59:05;;;;;;;;;;;12.20;99.90;;;;;;2604183;54;19963;31
2022/04/28 06:01:56;;;;;;;;;;;12.50;99.90;;;;;;2604156;54;19938;31
2022/04/28 06:04:35;;;;;;;;;;;12.60;99.90;;;;;;2603957;54;19935;31
2022/04/28 06:07:12;;;;;;;;;;;13.00;99.90;;;;;;2622416;46;19985;31
2022/04/28 06:09:55;;;;;;;;;;;13.40;99.90;;;;;;2603970;54;20029;31
2022/04/28 06:12:38;;;;;;;;;;;13.60;99.90;;;;;;2603170;54;19946;31
2022/04/28 06:15:31;;;;;;;;;;;13.90;99.90;;;;;;2702641;39;20978;31
2022/04/28 06:18:34;;;;;;;;;;;14.30;99.90;;;;;;2603918;54;19941;31
2022/04/28 06:21:29;;;;;;;;;;;14.60;99.90;;;;;;2608134;46;20736;31
2022/04/28 06:24:04;;;;;;;;;;;14.70;99.90;;;;;;2604029;54;20846;31
2022/04/28 06:26:37;;;;;;;;;;;15.00;99.90;;;;;;2603911;54;19981;31
2022/04/28 06:29:15;;;;;;;;;;;15.20;99.90;;;;;;2603252;54;19939;31
2022/04/28 06:31:49;;;;;;;;;;;15.50;99.90;;;;;;2622295;46;19935;31
2022/04/28 06:34:53;;;;;;;;;;;15.70;99.90;;;;;;2603750;54;20808;31
2022/04/28 06:37:38;;;;;;;;;;;16.00;99.90;;;;;;2603952;54;19944;31
2022/04/28 06:40:13;;;;;;;;;;;16.20;99.90;;;;;;2622575;46;19947;31
2022/04/28 06:42:50;;;;;;;;;;;16.50;99.90;;;;;;2604029;54;19941;31
2022/04/28 06:45:33;;;;;;;;;;;16.70;99.90;;;;;;2603596;46;21041;31
2022/04/28 06:48:17;;;;;;;;;;;16.90;99.90;;;;;;2603881;54;19934;31
2022/04/28 06:51:16;;;;;;;;;;;16.90;99.90;;;;;;2603786;54;19958;31
2022/04/28 06:54:15;;;;;;;;;;;17.20;99.90;;;;;;2604013;54;20446;31
2022/04/28 06:56:52;;;;;;;;;;;17.40;99.90;;;;;;2603871;54;20819;31
2022/04/28 06:59:27;;;;;;;;;;;17.60;99.90;;;;;;2622314;46;19994;31
2022/04/28 07:02:04;;;;;;;;;;;17.80;99.90;;;;;;2603888;54;20801;31
2022/04/28 07:04:44;;;;;;;;;;;17.90;99.90;;;;;;2622239;46;19942;31
2022/04/28 07:07:22;;;;;;;;;;;18.10;99.90;;;;;;2603723;54;19935;31
2022/04/28 07:10:07;;;;;;;;;;;18.20;99.90;;;;;;2603711;54;19935;31
2022/04/28 07:12:53;;;;;;;;;;;18.40;99.90;;;;;;2622439;46;20034;31
2022/04/28 07:16:04;;;;;;;;;;;18.60;99.90;;;;;;2603578;54;20875;31
2022/04/28 07:18:58;;;;;;;;;;;18.70;99.90;;;;;;2622495;46;19965;31
2022/04/28 07:21:35;;;;;;;;;;;18.90;99.70;;;;;;2603909;54;20802;31
2022/04/28 07:24:13;;;;;;;;;;;19.00;98.90;;;;;;2603568;54;19938;31
2022/04/28 07:26:51;;;;;;;;;;;19.20;97.80;;;;;;2603610;54;20478;31
2022/04/28 07:29:26;;;;;;;;;;;19.40;97.00;;;;;;2622394;46;19960;31
2022/04/28 07:32:12;;;;;;;;;;;19.50;96.60;;;;;;2603703;54;19935;31
2022/04/28 07:35:16;;;;;;;;;;;19.60;94.60;;;;;;2603644;54;19946;31
2022/04/28 07:38:08;;;;;;;;;;;19.70;95.20;;;;;;2702618;39;20930;31
2022/04/28 07:41:12;;;;;;;;;;;19.90;93.70;;;;;;2603416;54;20006;31
2022/04/28 07:43:47;;;;;;;;;;;20.10;93.20;;;;;;2622178;46;20804;31
2022/04/28 07:46:26;;;;;;;;;;;20.30;92.20;;;;;;2622115;46;19935;31
2022/04/28 07:49:04;;;;;;;;;;;20.40;90.60;;;;;;2603690;54;19942;31
2022/04/28 07:51:42;;;;;;;;;;;20.40;90.20;;;;;;2622305;46;20764;31
2022/04/28 07:54:17;;;;;;;;;;;20.20;90.60;;;;;;2603722;54;19942;31
2022/04/28 07:56:53;;;;;;;;;;;20.30;90.00;;;;;;2701389;39;20525;31
2022/04/28 07:59:35;;;;;;;;;;;20.30;89.80;;;;;;2603582;54;20869;31
2022/04/28 08:02:19;;;;;;;;;;;20.50;87.10;;;;;;2622045;46;19942;31
2022/04/28 08:04:58;;;;;;;;;;;20.50;87.80;;;;;;2702236;39;21009;31
2022/04/28 08:07:34;;;;;;;;;;;20.50;89.50;;;;;;2621992;46;20035;31
2022/04/28 08:10:15;;;;;;;;;;;20.40;84.70;;;;;;2602884;54;19934;31
2022/04/28 08:12:51;;;;;;;;;;;20.50;82.40;;;;;;2603648;54;20517;31
2022/04/28 08:15:44;;;;;;;;;;;20.40;83.50;;;;;;2603666;54;19934;31
2022/04/28 08:18:23;;;;;;;;;;;20.30;81.90;;;;;;2603200;54;20493;31
2022/04/28 08:21:01;;;;;;;;;;;20.30;83.90;;;;;;2603455;54;20017;31
2022/04/28 08:23:38;;;;;;;;;;;20.10;83.30;;;;;;2603512;54;19989;31
2022/04/28 08:26:14;;;;;;;;;;;20.10;83.90;;;;;;2603417;54;19934;31
2022/04/28 08:28:52;;;;;;;;;;;20.00;84.50;;;;;;2603643;54;20752;31
2022/04/28 08:31:27;;;;;;;;;;;20.00;83.70;;;;;;2603401;54;19942;31
2022/04/28 08:34:10;;;;;;;;;;;20.00;84.70;;;;;;2702175;39;20406;31
2022/04/28 08:36:47;;;;;;;;;;;20.00;83.40;;;;;;2602918;54;19969;31
2022/04/28 08:39:25;;;;;;;;;;;20.00;84.80;;;;;;2603573;54;19946;31
2022/04/28 08:42:01;;;;;;;;;;;20.00;85.60;;;;;;2603436;54;19934;31
2022/04/28 08:44:41;;;;;;;;;;;20.10;84.40;;;;;;2622368;47;20772;31
2022/04/28 08:47:41;;;;;;;;;;;20.00;85.50;;;;;;2701691;39;21131;31
2022/04/28 08:50:34;;;;;;;;;;;20.10;85.10;;;;;;2702221;39;20346;31
2022/04/28 08:53:18;;;;;;;;;;;20.20;86.20;;;;;;2603598;54;19935;31
2022/04/28 08:55:57;;;;;;;;;;;20.20;83.90;;;;;;2603358;54;20013;31
2022/04/28 08:58:32;;;;;;;;;;;20.10;83.50;;;;;;2602765;54;19935;31
2022/04/28 09:01:12;;;;;;;;;;;20.00;84.30;;;;;;2622146;47;19941;31
2022/04/28 09:04:10;;;;;;;;;;;20.00;84.40;;;;;;2603629;54;21401;31
2022/04/28 09:07:06;;;;;;;;;;;20.20;85.40;;;;;;2603454;54;20796;31
2022/04/28 09:09:52;;;;;;;;;;;20.40;86.70;;;;;;2702154;39;20405;31
2022/04/28 09:12:32;;;;;;;;;;;20.60;86.40;;;;;;2621879;47;20442;31
2022/04/28 09:15:36;;;;;;;;;;;20.70;85.10;;;;;;2603461;54;19942;31
2022/04/28 09:18:20;;;;;;;;;;;20.80;85.10;;;;;;2603348;54;19942;31
2022/04/28 09:20:56;;;;;;;;;;;20.90;82.50;;;;;;2603340;54;19942;31
2022/04/28 09:23:31;;;;;;;;;;;20.90;83.30;;;;;;2621686;47;19935;31
2022/04/28 09:26:10;;;;;;;;;;;20.80;83.50;;;;;;2619818;47;20510;31
2022/04/28 09:28:46;;;;;;;;;;;21.10;85.40;;;;;;2622239;47;19939;31
2022/04/28 09:31:23;;;;;;;;;;;21.10;81.30;;;;;;2604265;54;19942;31
2022/04/28 09:34:53;;;;;;;;;;;21.00;84.40;;;;;;2604089;54;19986;31
2022/04/28 09:37:50;;;;;;;;;;;21.00;82.90;;;;;;2702450;39;21226;31
2022/04/28 09:43:19;;;;;;;;;;;20.90;82.00;;;;;;2622324;46;20826;31
2022/04/28 09:45:55;;;;;;;;;;;20.90;80.60;;;;;;2604238;54;20484;31
2022/04/28 09:48:36;;;;;;;;;;;20.80;79.60;;;;;;2622444;46;20458;31
2022/04/28 09:51:13;;;;;;;;;;;20.70;81.10;;;;;;2702586;39;21227;31
2022/04/28 09:54:09;;;;;;;;;;;20.50;81.80;;;;;;2702565;39;20423;31
2022/04/28 09:57:04;;;;;;;;;;;20.50;82.00;;;;;;2604212;54;19934;31
2022/04/28 09:59:43;;;;;;;;;;;20.30;79.30;;;;;;2701691;39;20409;31
2022/04/28 10:02:21;;;;;;;;;;;20.20;79.40;;;;;;2622535;46;19941;31
2022/04/28 10:04:55;;;;;;;;;;;20.30;80.00;;;;;;2603898;54;19951;31
2022/04/28 10:07:39;;;;;;;;;;;20.20;79.90;;;;;;2604055;54;19934;31
2022/04/28 10:10:14;;;;;;;;;;;20.20;80.60;;;;;;2603916;54;19935;31
2022/04/28 10:12:49;;;;;;;;;;;20.30;80.90;;;;;;2622670;46;19942;31
2022/04/28 10:15:50;;;;;;;;;;;20.20;79.50;;;;;;2603887;54;19961;31
2022/04/28 10:18:29;;;;;;;;;;;20.10;78.50;;;;;;2604088;54;20660;31
2022/04/28 10:21:05;;;;;;;;;;;20.10;80.30;;;;;;2608436;46;19935;31
2022/04/28 10:32:45;;;;;;;;;;;20.30;81.50;;;;;;2604059;54;19939;31
2022/04/28 10:35:25;;;;;;;;;;;20.30;79.70;;;;;;2603919;54;19993;31
2022/04/28 10:38:00;;;;;;;;;;;20.30;81.20;;;;;;2603764;54;19999;31
2022/04/28 10:40:38;;;;;;;;;;;20.30;80.10;;;;;;2602828;54;19949;31
2022/04/28 10:43:23;;;;;;;;;;;20.30;78.80;;;;;;2622255;46;19935;31
2022/04/28 10:46:01;;;;;;;;;;;20.30;78.70;;;;;;2603732;54;19935;31
2022/04/28 10:48:38;;;;;;;;;;;20.20;80.90;;;;;;2621953;46;19997;31
2022/04/28 10:51:17;;;;;;;;;;;20.30;81.20;;;;;;2622283;46;20010;31
2022/04/28 10:54:01;;;;;;;;;;;20.30;82.30;;;;;;2604072;54;19962;31
2022/04/28 10:56:54;;;;;;;;;;;20.40;78.20;;;;;;2622255;46;19935;31
2022/04/28 10:59:40;;;;;;;;;;;20.30;82.20;;;;;;2603780;54;19998;31
2022/04/28 11:02:18;;;;;;;;;;;20.40;80.10;;;;;;2603849;54;19974;31
2022/04/28 11:05:00;;;;;;;;;;;20.40;81.70;;;;;;2622277;46;19934;31
2022/04/28 11:10:12;;;;;;;;;;;20.30;79.50;;;;;;2603033;54;20679;31
2022/04/28 11:12:47;;;;;;;;;;;20.30;81.40;;;;;;2622689;46;19938;31
2022/04/28 11:15:25;;;;;;;;;;;20.30;81.30;;;;;;2622556;46;19935;31
2022/04/28 11:17:59;;;;;;;;;;;20.20;79.70;;;;;;2603602;54;19946;31
2022/04/28 11:20:37;;;;;;;;;;;20.20;83.60;;;;;;2622339;46;20787;31
2022/04/28 11:23:12;;;;;;;;;;;20.30;83.00;;;;;;2604003;54;19985;31
2022/04/28 11:25:52;;;;;;;;;;;20.20;84.10;;;;;;2622206;46;19939;31
2022/04/28 11:28:31;;;;;;;;;;;19.90;82.40;;;;;;2621890;46;19934;31
2022/04/28 11:31:04;;;;;;;;;;;19.60;82.00;;;;;;2603596;54;20751;31
2022/04/28 11:33:41;;;;;;;;;;;19.70;83.20;;;;;;2603791;54;19941;31
2022/04/28 11:39:46;;;;;;;;;;;20.00;85.60;;;;;;2603682;54;19938;31
2022/04/28 11:42:26;;;;;;;;;;;20.10;81.30;;;;;;2603937;54;19981;31
2022/04/28 11:48:03;;;;;;;;;;;19.70;82.40;;;;;;2603748;54;20725;31
2022/04/28 11:50:41;;;;;;;;;;;19.80;84.40;;;;;;2602719;54;20792;31
2022/04/28 11:53:32;;;;;;;;;;;19.60;84.20;;;;;;2701808;39;21189;31
2022/04/28 11:56:47;;;;;;;;;;;19.40;84.50;;;;;;2603408;54;19939;31
2022/04/28 11:59:26;;;;;;;;;;;19.40;85.90;;;;;;2603296;54;19986;31
2022/04/28 12:02:00;;;;;;;;;;;19.50;85.00;;;;;;2602750;54;19969;31
2022/04/28 12:04:44;;;;;;;;;;;19.50;84.80;;;;;;2603594;54;19935;31
2022/04/28 12:07:21;;;;;;;;;;;19.60;82.80;;;;;;2622150;46;20762;31
2022/04/28 12:15:37;;;;;;;;;;;19.50;82.50;;;;;;2603461;54;20824;31
2022/04/28 12:21:06;;;;;;;;;;;19.50;81.70;;;;;;2622363;46;19935;31
2022/04/28 12:23:43;;;;;;;;;;;19.40;82.60;;;;;;2621961;46;20757;31
2022/04/28 12:28:52;;;;;;;;;;;19.20;83.20;;;;;;2621999;46;19941;31
2022/04/28 12:31:31;;;;;;;;;;;19.30;82.80;;;;;;2702148;39;20955;31
2022/04/28 12:34:20;;;;;;;;;;;19.30;84.00;;;;;;2603446;54;20001;31
2022/04/28 12:36:58;;;;;;;;;;;19.40;83.30;;;;;;2602731;54;20649;31
2022/04/28 12:39:39;;;;;;;;;;;19.30;81.90;;;;;;2621464;47;20702;31
2022/04/28 12:42:16;;;;;;;;;;;19.40;82.90;;;;;;2603461;54;19942;31
2022/04/28 12:44:50;;;;;;;;;;;19.40;84.40;;;;;;2602782;54;19964;31
2022/04/28 12:47:42;;;;;;;;;;;19.20;82.80;;;;;;2603511;54;20775;31
2022/04/28 12:50:26;;;;;;;;;;;19.00;82.50;;;;;;2603378;54;19934;31
2022/04/28 12:53:08;;;;;;;;;;;18.80;82.50;;;;;;2603503;54;19934;31
2022/04/28 12:55:43;;;;;;;;;;;18.60;81.90;;;;;;2603531;54;19939;31
2022/04/28 12:58:22;;;;;;;;;;;18.50;84.30;;;;;;2720129;39;20478;31
2022/04/28 13:00:56;;;;;;;;;;;18.60;84.00;;;;;;2621929;47;20741;31
2022/04/28 13:03:37;;;;;;;;;;;18.50;83.60;;;;;;2622099;47;19941;31
2022/04/28 13:06:15;;;;;;;;;;;18.60;85.40;;;;;;2622829;46;20807;31
2022/04/28 13:08:54;;;;;;;;;;;18.60;85.00;;;;;;2604330;54;19935;31
2022/04/28 13:11:31;;;;;;;;;;;18.60;84.10;;;;;;2603325;54;19942;31
2022/04/28 13:14:05;;;;;;;;;;;18.60;84.20;;;;;;2701952;39;20524;31
2022/04/28 13:16:42;;;;;;;;;;;18.40;82.20;;;;;;2717952;39;20437;31
2022/04/28 13:19:20;;;;;;;;;;;18.30;83.70;;;;;;2603339;54;19935;31
2022/04/28 13:21:58;;;;;;;;;;;18.20;84.30;;;;;;2621934;46;19942;31
2022/04/28 13:24:33;;;;;;;;;;;18.30;86.90;;;;;;2603491;54;19954;31
2022/04/28 13:27:09;;;;;;;;;;;18.40;84.70;;;;;;2603349;54;19938;31
2022/04/28 13:29:47;;;;;;;;;;;18.40;85.00;;;;;;2603565;54;20738;31
2022/04/28 13:32:22;;;;;;;;;;;18.30;83.70;;;;;;2604236;54;19934;31
2022/04/28 13:34:57;;;;;;;;;;;18.10;82.90;;;;;;2622922;46;20021;31
2022/04/28 13:37:34;;;;;;;;;;;18.20;83.00;;;;;;2604129;54;20748;31
2022/04/28 13:40:11;;;;;;;;;;;18.20;85.80;;;;;;2622606;46;19935;31
2022/04/28 13:42:47;;;;;;;;;;;18.30;85.10;;;;;;2604373;54;20021;31
2022/04/28 13:45:21;;;;;;;;;;;18.40;84.70;;;;;;2622907;46;19934;31
2022/04/28 13:47:56;;;;;;;;;;;18.30;83.80;;;;;;2604106;54;20840;31
2022/04/28 13:50:31;;;;;;;;;;;18.40;83.60;;;;;;2603979;54;20852;31
2022/04/28 13:53:09;;;;;;;;;;;18.30;82.00;;;;;;2604035;54;19942;31
2022/04/28 13:55:44;;;;;;;;;;;18.30;82.70;;;;;;2605308;46;19935;31
2022/04/28 13:58:20;;;;;;;;;;;18.20;83.30;;;;;;2603965;54;19934;31
2022/04/28 14:00:56;;;;;;;;;;;18.10;84.30;;;;;;2622665;46;20041;31
2022/04/28 14:03:30;;;;;;;;;;;18.00;83.40;;;;;;2622757;46;19935;31
2022/04/28 14:06:03;;;;;;;;;;;18.00;82.40;;;;;;2702692;39;20930;31
2022/04/28 14:08:41;;;;;;;;;;;18.00;83.80;;;;;;2604189;54;20767;31
2022/04/28 14:11:16;;;;;;;;;;;18.10;87.00;;;;;;2612672;46;19950;31
2022/04/28 14:13:51;;;;;;;;;;;18.20;83.70;;;;;;2620248;46;19942;31
2022/04/28 14:16:27;;;;;;;;;;;18.30;82.50;;;;;;2622650;46;19947;31
2022/04/28 14:19:01;;;;;;;;;;;18.30;81.60;;;;;;2622580;46;19935;31
2022/04/28 14:21:37;;;;;;;;;;;18.40;84.10;;;;;;2603684;54;19950;31
2022/04/28 14:24:14;;;;;;;;;;;18.40;83.10;;;;;;2603811;54;20492;31
2022/04/28 14:26:51;;;;;;;;;;;18.40;81.90;;;;;;2622822;46;20013;31
2022/04/28 14:29:25;;;;;;;;;;;18.50;81.70;;;;;;2622602;46;19950;31
2022/04/28 14:32:03;;;;;;;;;;;18.40;80.80;;;;;;2622463;46;19998;31
2022/04/28 14:34:37;;;;;;;;;;;18.50;80.80;;;;;;2603906;54;19939;31
2022/04/28 14:37:16;;;;;;;;;;;18.50;82.40;;;;;;2603209;54;20715;31
2022/04/28 14:39:53;;;;;;;;;;;18.50;83.00;;;;;;2602780;54;19942;31
2022/04/28 14:42:30;;;;;;;;;;;18.50;81.20;;;;;;2615056;46;20754;31
2022/04/28 14:45:05;;;;;;;;;;;18.40;81.20;;;;;;2617008;46;20802;31
2022/04/28 14:47:43;;;;;;;;;;;18.40;83.10;;;;;;2720358;39;20322;31
2022/04/28 14:53:07;;;;;;;;;;;18.40;82.40;;;;;;2617153;39;20195;31
2022/04/28 14:55:46;;;;;;;;;;;18.30;81.00;;;;;;2603172;54;20730;31
2022/04/28 14:58:21;;;;;;;;;;;18.30;79.50;;;;;;2622351;46;19957;31
2022/04/28 15:00:56;;;;;;;;;;;18.30;77.40;;;;;;2603753;54;19977;31
2022/04/28 15:03:35;;;;;;;;;;;18.20;79.30;;;;;;2619579;46;19949;31
2022/04/28 15:06:10;;;;;;;;;;;18.20;79.70;;;;;;2616737;46;20767;31
2022/04/28 15:08:47;;;;;;;;;;;18.20;81.70;;;;;;2622009;46;20010;31
2022/04/28 15:11:25;;;;;;;;;;;18.30;82.20;;;;;;2622521;46;20878;31
2022/04/28 15:14:00;;;;;;;;;;;18.20;81.30;;;;;;2622349;46;20767;31
2022/04/28 15:16:36;;;;;;;;;;;18.20;79.60;;;;;;2622076;46;19999;31
2022/04/28 15:19:16;;;;;;;;;;;18.10;81.60;;;;;;2603818;54;19941;31
2022/04/28 15:21:52;;;;;;;;;;;18.00;80.20;;;;;;2612303;46;20513;31
2022/04/28 15:24:29;;;;;;;;;;;18.00;81.30;;;;;;2603068;54;19947;31
2022/04/28 15:27:08;;;;;;;;;;;17.90;81.50;;;;;;2720863;39;20923;31
2022/04/28 15:29:48;;;;;;;;;;;17.80;81.20;;;;;;2603733;54;20732;31
2022/04/28 15:32:42;;;;;;;;;;;17.70;83.10;;;;;;2603696;54;20772;31
2022/04/28 15:35:23;;;;;;;;;;;17.70;81.30;;;;;;2603622;54;20837;31
2022/04/28 15:38:00;;;;;;;;;;;17.70;83.50;;;;;;2603583;54;20661;31
2022/04/28 15:40:38;;;;;;;;;;;17.70;82.80;;;;;;2603839;54;19934;31
2022/04/28 15:43:17;;;;;;;;;;;17.60;83.10;;;;;;2603876;54;19935;31
2022/04/28 15:45:59;;;;;;;;;;;17.60;83.30;;;;;;2622319;46;20748;31
2022/04/28 15:48:38;;;;;;;;;;;17.50;82.80;;;;;;2622043;46;20709;31
2022/04/28 15:51:13;;;;;;;;;;;17.50;83.00;;;;;;2603637;54;20730;31
2022/04/28 15:53:51;;;;;;;;;;;17.50;84.10;;;;;;2603474;54;20794;31
2022/04/28 15:56:30;;;;;;;;;;;17.40;82.40;;;;;;2603673;54;19939;31
2022/04/28 15:59:06;;;;;;;;;;;17.30;83.40;;;;;;2616827;46;19943;31
2022/04/28 16:01:44;;;;;;;;;;;17.30;82.70;;;;;;2603780;54;20506;31
2022/04/28 16:04:19;;;;;;;;;;;17.20;83.50;;;;;;2622025;46;20821;31
2022/04/28 16:06:57;;;;;;;;;;;17.20;83.80;;;;;;2604016;54;19934;31
2022/04/28 16:09:32;;;;;;;;;;;17.20;82.80;;;;;;2712757;39;20465;31
2022/04/28 16:12:07;;;;;;;;;;;17.10;83.70;;;;;;2622232;46;20765;31
2022/04/28 16:14:42;;;;;;;;;;;17.10;83.90;;;;;;2622215;46;20832;31
2022/04/28 16:17:22;;;;;;;;;;;17.10;83.30;;;;;;2602962;54;19958;31
2022/04/28 16:19:57;;;;;;;;;;;17.10;84.20;;;;;;2603420;54;19935;31
2022/04/28 16:22:36;;;;;;;;;;;17.00;83.50;;;;;;2603037;54;20521;31
2022/04/28 16:25:10;;;;;;;;;;;16.90;83.90;;;;;;2603105;54;20482;31
2022/04/28 16:27:46;;;;;;;;;;;16.90;83.60;;;;;;2603810;54;20544;31
2022/04/28 16:30:23;;;;;;;;;;;16.80;84.20;;;;;;2617621;46;19949;31
2022/04/28 16:33:01;;;;;;;;;;;16.80;83.90;;;;;;2621916;46;20741;31
2022/04/28 16:35:36;;;;;;;;;;;16.70;84.40;;;;;;2603571;54;19934;31
2022/04/28 16:38:15;;;;;;;;;;;16.70;85.90;;;;;;2603335;47;20741;31
2022/04/28 16:40:51;;;;;;;;;;;16.70;85.50;;;;;;2610088;47;20793;31